Time;durP1;ratioP1;P1;durP2;ratioP2;P2;SDS_P1;SDS_P2;PMS_P1;PMS_P2;Temp;Humidity;BMP_temperature;BMP_pressure;BME280_temperature;BME280_humidity;BME280_pressure;Samples;Min_cycle;Max_cycle;Signal;HPM_P1;HPM_P2
2023/06/01 00:00:19;;;;;;;;;6.00;6.00;;;;;;;;2001655;28;2740903;-71
2023/06/01 00:01:36;;;;;;;;;10.00;8.00;;;;;;;;1999509;28;3480784;-71
2023/06/01 00:02:47;;;;;;;;;6.00;5.00;;;;;;;;1979405;28;3465896;-71
2023/06/01 00:03:58;;;;;;;;;6.67;6.67;;;;;;;;2004192;28;2735683;-71
2023/06/01 00:05:08;;;;;;;;;7.33;7.33;;;;;;;;1978710;28;3449248;-71
2023/06/01 00:06:19;;;;;;;;;7.33;6.00;;;;;;;;2003631;28;2737770;-71
2023/06/01 00:07:32;;;;;;;;;7.80;7.00;;;;;;;;2009922;28;1821224;-71
2023/06/01 00:08:42;;;;;;;;;4.33;3.67;;;;;;;;1947479;28;3464797;-71
2023/06/01 00:09:53;;;;;;;;;7.67;7.67;;;;;;;;2002330;28;2739854;-71
2023/06/01 00:11:04;;;;;;;;;11.00;8.00;;;;;;;;2006256;28;2763246;-71
2023/06/01 00:12:15;;;;;;;;;9.33;8.00;;;;;;;;1999494;28;3470450;-71
2023/06/01 00:13:26;;;;;;;;;9.00;9.00;;;;;;;;1995303;28;2741928;-71
2023/06/01 00:14:37;;;;;;;;;7.33;6.33;;;;;;;;1999938;28;3447125;-71
2023/06/01 00:15:48;;;;;;;;;7.00;6.67;;;;;;;;1994268;28;3443988;-71
2023/06/01 00:16:59;;;;;;;;;7.33;7.33;;;;;;;;2010044;28;1821569;-71
2023/06/01 00:18:12;;;;;;;;;7.33;7.33;;;;;;;;1978811;28;2734701;-71
2023/06/01 00:19:24;;;;;;;;;9.00;8.00;;;;;;;;1979740;28;2753472;-71
2023/06/01 00:20:38;;;;;;;;;9.75;6.75;;;;;;;;1992671;28;1827392;-71
2023/06/01 00:21:49;;;;;;;;;9.50;8.50;;;;;;;;1977242;28;2756535;-71
2023/06/01 00:23:00;;;;;;;;;7.00;6.00;;;;;;;;2000068;28;3449216;-71
2023/06/01 00:24:10;;;;;;;;;8.00;6.67;;;;;;;;2010013;28;1812782;-71
2023/06/01 00:25:22;;;;;;;;;4.25;4.25;;;;;;;;1996304;28;1814870;-71
2023/06/01 00:26:32;;;;;;;;;5.00;5.00;;;;;;;;1982518;28;2739868;-71
2023/06/01 00:27:43;;;;;;;;;7.00;7.00;;;;;;;;2008064;28;2738136;-71
2023/06/01 00:28:54;;;;;;;;;7.00;6.00;;;;;;;;2004777;28;2736684;-71
2023/06/01 00:30:04;;;;;;;;;9.00;8.00;;;;;;;;1978856;28;2746202;-71
2023/06/01 00:31:16;;;;;;;;;9.00;5.75;;;;;;;;2004982;28;1829494;-71
2023/06/01 00:32:26;;;;;;;;;10.00;8.00;;;;;;;;1978084;28;3474191;-71
2023/06/01 00:33:37;;;;;;;;;8.67;6.67;;;;;;;;2001074;28;1811767;-71
2023/06/01 00:34:47;;;;;;;;;7.33;7.33;;;;;;;;1988749;28;1819041;-71
2023/06/01 00:35:58;;;;;;;;;10.00;8.00;;;;;;;;1971237;28;2759676;-71
2023/06/01 00:37:09;;;;;;;;;10.00;6.75;;;;;;;;2000145;28;1815865;-71
2023/06/01 00:38:20;;;;;;;;;10.25;9.50;;;;;;;;1970666;28;1829507;-71
2023/06/01 00:39:31;;;;;;;;;6.67;6.00;;;;;;;;1977781;28;2737754;-71
2023/06/01 00:40:43;;;;;;;;;8.67;7.67;;;;;;;;1995732;28;3459628;-71
2023/06/01 00:41:53;;;;;;;;;6.67;6.33;;;;;;;;1972108;28;2735749;-71
2023/06/01 00:43:04;;;;;;;;;8.33;7.67;;;;;;;;2007255;28;2744442;-71
2023/06/01 00:44:15;;;;;;;;;10.00;9.67;;;;;;;;2000186;28;3494473;-71
2023/06/01 00:45:26;;;;;;;;;7.00;7.00;;;;;;;;2006028;28;2737758;-71
2023/06/01 00:46:37;;;;;;;;;6.33;6.33;;;;;;;;2010668;28;2737804;-71
2023/06/01 00:47:48;;;;;;;;;10.00;8.00;;;;;;;;1993694;28;1825297;-71
2023/06/01 00:48:58;;;;;;;;;10.00;9.00;;;;;;;;1974798;28;2761744;-71
2023/06/01 00:50:13;;;;;;;;;8.00;8.00;;;;;;;;2011065;28;1814900;-71
2023/06/01 00:51:23;;;;;;;;;7.00;6.00;;;;;;;;1954033;28;2744000;-71
2023/06/01 00:52:35;;;;;;;;;7.75;7.00;;;;;;;;1990752;28;2733600;-71
2023/06/01 00:53:46;;;;;;;;;7.75;6.25;;;;;;;;1972744;28;1818019;-71
2023/06/01 00:54:57;;;;;;;;;8.00;7.00;;;;;;;;1999775;28;1809619;-71
2023/06/01 00:56:08;;;;;;;;;10.00;8.00;;;;;;;;1983647;28;3474217;-71
2023/06/01 00:57:20;;;;;;;;;7.00;7.00;;;;;;;;2002854;28;1829413;-71
2023/06/01 00:58:31;;;;;;;;;10.00;8.00;;;;;;;;1964070;28;3469030;-71
2023/06/01 00:59:42;;;;;;;;;8.00;8.00;;;;;;;;2013891;28;1821183;-71
2023/06/01 01:00:53;;;;;;;;;8.67;7.00;;;;;;;;1988629;28;3452329;-71
2023/06/01 01:02:04;;;;;;;;;9.50;8.00;;;;;;;;1986377;28;2745050;-71
2023/06/01 01:03:15;;;;;;;;;9.00;7.67;;;;;;;;2004785;28;2744068;-71
2023/06/01 01:04:27;;;;;;;;;8.75;7.00;;;;;;;;1991894;28;1829611;-71
2023/06/01 01:05:41;;;;;;;;;9.00;8.00;;;;;;;;2010462;28;1819059;-71
2023/06/01 01:07:00;;;;;;;;;9.33;6.67;;;;;;;;1963618;28;3463810;-71
2023/06/01 01:08:11;;;;;;;;;8.75;8.75;;;;;;;;2001344;28;1817006;-71
2023/06/01 01:09:32;;;;;;;;;7.33;7.00;;;;;;;;1986196;28;3451311;-71
2023/06/01 01:10:45;;;;;;;;;7.00;7.00;;;;;;;;1985183;28;2742050;-71
2023/06/01 01:12:12;;;;;;;;;6.67;6.50;;;;;;;;2011526;28;2735738;-71
2023/06/01 01:13:26;;;;;;;;;8.75;8.00;;;;;;;;1972328;28;1821997;-71
2023/06/01 01:14:40;;;;;;;;;9.33;7.33;;;;;;;;1986655;28;3456495;-71
2023/06/01 01:15:58;;;;;;;;;8.00;6.67;;;;;;;;1977797;28;3460677;-71
2023/06/01 01:17:38;;;;;;;;;7.00;7.00;;;;;;;;1981398;28;2746111;-71
2023/06/01 01:18:54;;;;;;;;;10.00;6.00;;;;;;;;1976133;28;3473172;-71
2023/06/01 01:20:24;;;;;;;;;10.00;8.50;;;;;;;;1978262;28;2766959;-71
2023/06/01 01:21:38;;;;;;;;;10.40;10.00;;;;;;;;2004675;28;2782504;-71
2023/06/01 01:22:56;;;;;;;;;8.00;8.00;;;;;;;;1962820;28;2737813;-71
2023/06/01 01:24:12;;;;;;;;;9.17;7.00;;;;;;;;2017977;28;1819132;-71
2023/06/01 01:25:25;;;;;;;;;9.00;8.00;;;;;;;;1961312;28;2744114;-71
2023/06/01 01:26:51;;;;;;;;;10.50;8.00;;;;;;;;1981895;28;2766947;-71
2023/06/01 01:28:20;;;;;;;;;12.00;10.00;;;;;;;;1981770;28;2791954;-71
2023/06/01 01:29:32;;;;;;;;;13.50;9.00;;;;;;;;1958733;28;2778420;-71
2023/06/01 01:30:43;;;;;;;;;9.00;8.00;;;;;;;;1983466;28;2745490;-71
2023/06/01 01:32:05;;;;;;;;;11.33;9.33;;;;;;;;1999533;27;3495022;-73
2023/06/01 01:33:17;;;;;;;;;12.50;9.00;;;;;;;;2032766;27;2773176;-73
2023/06/01 01:34:28;;;;;;;;;10.00;10.00;;;;;;;;2032464;27;2791961;-73
2023/06/01 01:35:41;;;;;;;;;9.67;7.83;;;;;;;;2065170;27;1819133;-73
2023/06/01 01:36:52;;;;;;;;;11.00;11.00;;;;;;;;2011304;27;2785680;-73
2023/06/01 01:38:03;;;;;;;;;9.00;9.00;;;;;;;;2033817;27;2760667;-73
2023/06/01 01:39:14;;;;;;;;;6.67;6.67;;;;;;;;2048273;27;2742374;-73
2023/06/01 01:40:25;;;;;;;;;11.17;10.00;;;;;;;;2050446;27;2787767;-73
2023/06/01 01:41:36;;;;;;;;;14.00;11.00;;;;;;;;2032148;27;2791883;-73
2023/06/01 01:42:50;;;;;;;;;15.00;11.67;;;;;;;;2030617;27;2791883;-73
2023/06/01 01:44:00;;;;;;;;;14.50;12.00;;;;;;;;2007911;27;2791411;-73
2023/06/01 01:45:13;;;;;;;;;11.00;10.60;;;;;;;;2038561;27;1821103;-73
2023/06/01 01:46:26;;;;;;;;;8.67;8.67;;;;;;;;2064769;27;1817000;-73
2023/06/01 01:47:39;;;;;;;;;12.33;12.17;;;;;;;;2039574;27;1827467;-73
2023/06/01 01:49:12;;;;;;;;;11.00;9.00;;;;;;;;2006219;27;2760707;-73
2023/06/01 01:50:26;;;;;;;;;9.50;9.50;;;;;;;;2006602;27;2759761;-73
2023/06/01 01:51:40;;;;;;;;;12.00;10.00;;;;;;;;2014577;27;2778384;-73
2023/06/01 01:52:52;;;;;;;;;11.00;10.50;;;;;;;;2009646;27;2793002;-73
2023/06/01 01:54:04;;;;;;;;;11.00;11.00;;;;;;;;2005808;27;2790883;-73
2023/06/01 01:55:17;;;;;;;;;14.00;12.00;;;;;;;;2009054;27;2786690;-73
2023/06/01 01:56:29;;;;;;;;;13.67;12.00;;;;;;;;2006095;27;2806495;-70
2023/06/01 01:57:43;;;;;;;;;12.43;10.43;;;;;;;;2061021;27;1831539;-70
2023/06/01 01:58:56;;;;;;;;;11.67;9.67;;;;;;;;2062078;27;1827436;-70
2023/06/01 02:00:11;;;;;;;;;12.50;9.00;;;;;;;;2040034;27;1826417;-70
2023/06/01 02:01:22;;;;;;;;;10.00;8.50;;;;;;;;2014478;27;2770071;-71
2023/06/01 02:02:32;;;;;;;;;13.50;12.00;;;;;;;;2035647;27;2791953;-70
2023/06/01 02:03:43;;;;;;;;;11.75;10.50;;;;;;;;2033271;27;2781474;-70
2023/06/01 02:04:56;;;;;;;;;14.00;12.14;;;;;;;;2030669;27;2811705;-70
2023/06/01 02:06:07;;;;;;;;;15.00;11.50;;;;;;;;2029090;27;2790180;-70
2023/06/01 02:07:17;;;;;;;;;13.00;10.00;;;;;;;;2018840;27;2787748;-70
2023/06/01 02:08:28;;;;;;;;;13.00;11.00;;;;;;;;2029780;27;2789806;-70
2023/06/01 02:09:41;;;;;;;;;13.86;12.00;;;;;;;;2032152;27;2812818;-70
2023/06/01 02:10:51;;;;;;;;;14.50;12.00;;;;;;;;2033470;27;2784675;-70
2023/06/01 02:12:05;;;;;;;;;13.43;13.00;;;;;;;;2055518;27;2804398;-70
2023/06/01 02:13:16;;;;;;;;;14.00;12.00;;;;;;;;2025677;27;2800255;-70
2023/06/01 02:14:26;;;;;;;;;11.00;11.00;;;;;;;;2028745;27;2789870;-70
2023/06/01 02:15:37;;;;;;;;;13.00;11.00;;;;;;;;2032234;27;2786259;-70
2023/06/01 02:16:50;;;;;;;;;13.20;11.80;;;;;;;;2059825;27;3520017;-70
2023/06/01 02:18:02;;;;;;;;;14.00;11.20;;;;;;;;2040089;27;2786702;-70
2023/06/01 02:19:15;;;;;;;;;14.00;12.67;;;;;;;;2028106;27;2794044;-70
2023/06/01 02:20:25;;;;;;;;;13.50;11.00;;;;;;;;2028771;27;2791921;-70
2023/06/01 02:21:37;;;;;;;;;17.20;15.20;;;;;;;;2031778;27;3544988;-70
2023/06/01 02:22:49;;;;;;;;;18.20;15.20;;;;;;;;2049372;27;3551243;-70
2023/06/01 02:24:05;;;;;;;;;14.00;13.14;;;;;;;;2053307;27;2801387;-70
2023/06/01 02:25:19;;;;;;;;;12.50;11.50;;;;;;;;2054692;27;1828407;-70
2023/06/01 02:26:30;;;;;;;;;14.50;13.50;;;;;;;;2005755;27;2804533;-70
2023/06/01 02:27:41;;;;;;;;;15.33;15.00;;;;;;;;2009374;27;3544035;-71
2023/06/01 02:28:53;;;;;;;;;19.00;17.20;;;;;;;;2060557;27;3561674;-71
2023/06/01 02:30:07;;;;;;;;;17.29;15.71;;;;;;;;2054855;27;3562761;-70
2023/06/01 02:31:17;;;;;;;;;12.50;11.50;;;;;;;;2033927;27;2802342;-70
2023/06/01 02:32:32;;;;;;;;;16.43;15.57;;;;;;;;2030906;27;3534580;-70
2023/06/01 02:33:43;;;;;;;;;13.33;13.33;;;;;;;;2033713;27;2810659;-70
2023/06/01 02:34:54;;;;;;;;;18.67;15.00;;;;;;;;2029600;27;3552336;-70
2023/06/01 02:36:06;;;;;;;;;14.00;12.00;;;;;;;;2047493;27;2790892;-70
2023/06/01 02:37:17;;;;;;;;;14.33;14.33;;;;;;;;2030343;27;2806603;-70
2023/06/01 02:38:28;;;;;;;;;13.50;12.00;;;;;;;;2031869;27;2799563;-70
2023/06/01 02:39:40;;;;;;;;;19.43;12.71;;;;;;;;2053079;27;3566259;-70
2023/06/01 02:40:52;;;;;;;;;16.40;13.80;;;;;;;;2057536;27;3539800;-70
2023/06/01 02:42:05;;;;;;;;;16.00;15.40;;;;;;;;2057199;27;3550235;-70
2023/06/01 02:43:15;;;;;;;;;15.50;13.00;;;;;;;;2023674;27;2795038;-70
2023/06/01 02:44:27;;;;;;;;;20.40;16.80;;;;;;;;2028589;27;3566866;-70
2023/06/01 02:45:39;;;;;;;;;16.20;11.80;;;;;;;;2053259;28;3530474;-70
2023/06/01 02:46:50;;;;;;;;;18.80;18.00;;;;;;;;2040490;27;2835654;-70
2023/06/01 02:48:02;;;;;;;;;19.60;16.80;;;;;;;;2051711;27;3557496;-70
2023/06/01 02:49:14;;;;;;;;;17.40;13.20;;;;;;;;2035933;28;3543981;-70
2023/06/01 02:50:26;;;;;;;;;20.00;16.80;;;;;;;;2050853;28;3579727;-70
2023/06/01 02:51:38;;;;;;;;;20.57;18.14;;;;;;;;2020557;28;3572088;-70
2023/06/01 02:52:50;;;;;;;;;17.40;13.80;;;;;;;;2034162;27;3536652;-70
2023/06/01 02:54:02;;;;;;;;;22.80;20.60;;;;;;;;2055741;27;3579736;-70
2023/06/01 02:55:15;;;;;;;;;22.60;19.00;;;;;;;;2029185;28;3568974;-70
2023/06/01 02:56:26;;;;;;;;;22.40;19.00;;;;;;;;2009002;27;3576230;-70
2023/06/01 02:57:38;;;;;;;;;25.60;21.40;;;;;;;;2049739;27;3583533;-70
2023/06/01 02:58:50;;;;;;;;;21.40;19.40;;;;;;;;2024329;28;3570053;-70
2023/06/01 03:00:04;;;;;;;;;21.60;18.40;;;;;;;;2028896;28;3581454;-70
2023/06/01 03:01:15;;;;;;;;;21.33;18.67;;;;;;;;2001833;28;3573101;-70
2023/06/01 03:02:26;;;;;;;;;25.40;17.20;;;;;;;;2035123;27;2844066;-70
2023/06/01 03:03:38;;;;;;;;;22.60;20.20;;;;;;;;2036883;27;3573112;-70
2023/06/01 03:04:49;;;;;;;;;20.50;18.00;;;;;;;;2031467;27;2837762;-70
2023/06/01 03:06:02;;;;;;;;;21.00;19.40;;;;;;;;2028128;28;3563771;-70
2023/06/01 03:07:14;;;;;;;;;21.33;20.67;;;;;;;;2003491;28;2842403;-70
2023/06/01 03:08:27;;;;;;;;;22.50;19.00;;;;;;;;2026149;27;2843999;-70
2023/06/01 03:09:38;;;;;;;;;19.33;18.00;;;;;;;;1998598;27;3575243;-70
2023/06/01 03:10:49;;;;;;;;;24.00;20.60;;;;;;;;2010137;28;2837261;-70
2023/06/01 03:12:01;;;;;;;;;27.33;22.33;;;;;;;;2023253;27;3573097;-70
2023/06/01 03:13:12;;;;;;;;;23.50;22.50;;;;;;;;2003927;27;2840582;-70
2023/06/01 03:14:23;;;;;;;;;23.60;20.40;;;;;;;;1999566;27;2834751;-70
2023/06/01 03:15:37;;;;;;;;;26.80;22.00;;;;;;;;2047868;27;3589837;-70
2023/06/01 03:16:48;;;;;;;;;21.67;19.67;;;;;;;;2024274;28;3561667;-70
2023/06/01 03:18:01;;;;;;;;;22.40;20.40;;;;;;;;2029079;27;3580766;-70
2023/06/01 03:19:11;;;;;;;;;25.50;23.00;;;;;;;;2003098;28;2834612;-70
2023/06/01 03:20:23;;;;;;;;;22.80;19.20;;;;;;;;2030816;27;3575219;-70
2023/06/01 03:21:37;;;;;;;;;27.50;22.75;;;;;;;;2024601;28;3589787;-70
2023/06/01 03:22:47;;;;;;;;;22.00;19.50;;;;;;;;2023753;27;2839837;-70
2023/06/01 03:23:59;;;;;;;;;23.60;22.60;;;;;;;;2027771;27;3582547;-70
2023/06/01 03:25:12;;;;;;;;;24.60;22.60;;;;;;;;2046984;27;3578333;-70
2023/06/01 03:26:23;;;;;;;;;24.50;22.00;;;;;;;;1999229;27;2836683;-70
2023/06/01 03:27:35;;;;;;;;;25.00;22.00;;;;;;;;2022482;27;3574186;-70
2023/06/01 03:28:46;;;;;;;;;24.40;19.40;;;;;;;;2006401;28;3578331;-70
2023/06/01 03:29:58;;;;;;;;;25.67;20.67;;;;;;;;2039392;27;3582511;-70
2023/06/01 03:31:11;;;;;;;;;22.40;19.80;;;;;;;;2030131;27;3562708;-70
2023/06/01 03:32:22;;;;;;;;;23.80;21.80;;;;;;;;2000321;28;3576289;-70
2023/06/01 03:33:34;;;;;;;;;27.40;24.00;;;;;;;;2020518;28;3579371;-70
2023/06/01 03:34:46;;;;;;;;;27.00;23.67;;;;;;;;2007598;28;3590832;-70
2023/06/01 03:35:58;;;;;;;;;26.00;24.80;;;;;;;;2018486;28;3574152;-70
2023/06/01 03:37:10;;;;;;;;;25.00;20.40;;;;;;;;2020123;28;3588258;-70
2023/06/01 03:38:22;;;;;;;;;24.00;21.60;;;;;;;;2021642;28;3576231;-70
2023/06/01 03:39:35;;;;;;;;;22.00;20.00;;;;;;;;2000149;28;3569001;-70
2023/06/01 03:40:45;;;;;;;;;25.00;19.00;;;;;;;;2017516;28;2836736;-70
2023/06/01 03:41:57;;;;;;;;;23.00;20.00;;;;;;;;2018408;28;3566852;-70
2023/06/01 03:43:09;;;;;;;;;29.20;24.40;;;;;;;;2044582;28;3583518;-70
2023/06/01 03:44:20;;;;;;;;;27.40;23.40;;;;;;;;2000508;28;2842971;-70
2023/06/01 03:45:33;;;;;;;;;25.60;24.40;;;;;;;;2042624;28;3581800;-70
2023/06/01 03:46:43;;;;;;;;;22.50;21.00;;;;;;;;2018762;28;2839813;-70
2023/06/01 03:47:55;;;;;;;;;29.20;27.20;;;;;;;;2025041;28;3580427;-70
2023/06/01 03:49:06;;;;;;;;;26.40;24.40;;;;;;;;2009357;28;2839891;-70
2023/06/01 03:50:17;;;;;;;;;24.40;21.20;;;;;;;;2028350;28;3578329;-70
2023/06/01 03:51:30;;;;;;;;;34.40;25.00;;;;;;;;2042263;28;3594995;-70
2023/06/01 03:52:41;;;;;;;;;26.60;24.60;;;;;;;;2010628;28;3583552;-70
2023/06/01 03:53:53;;;;;;;;;25.60;22.60;;;;;;;;2020687;28;3581474;-70
2023/06/01 03:55:08;;;;;;;;;26.00;22.60;;;;;;;;1996224;28;2838851;-70
2023/06/01 03:56:19;;;;;;;;;29.00;23.00;;;;;;;;2014688;28;2854431;-70
2023/06/01 03:57:29;;;;;;;;;31.00;20.50;;;;;;;;1994100;28;2866912;-70
2023/06/01 03:58:41;;;;;;;;;26.60;22.60;;;;;;;;2018946;28;3601256;-70
2023/06/01 03:59:53;;;;;;;;;29.60;25.00;;;;;;;;2035283;28;3565826;-70
2023/06/01 04:01:07;;;;;;;;;30.88;25.63;;;;;;;;2011897;28;3596052;-70
2023/06/01 04:02:18;;;;;;;;;29.00;23.00;;;;;;;;2015820;28;2845048;-70
2023/06/01 04:03:29;;;;;;;;;23.00;21.00;;;;;;;;1986250;28;2837741;-70
2023/06/01 04:04:45;;;;;;;;;32.33;27.67;;;;;;;;2006542;28;3606493;-70
2023/06/01 04:05:59;;;;;;;;;30.33;25.67;;;;;;;;1990970;28;3592991;-70
2023/06/01 04:07:09;;;;;;;;;29.00;23.00;;;;;;;;1990706;28;2841924;-70
2023/06/01 04:08:21;;;;;;;;;26.00;25.80;;;;;;;;2017648;28;3587708;-70
2023/06/01 04:09:33;;;;;;;;;27.80;27.60;;;;;;;;2043298;28;3579363;-70
2023/06/01 04:10:45;;;;;;;;;27.80;24.00;;;;;;;;2017129;28;3572130;-70
2023/06/01 04:11:59;;;;;;;;;30.63;27.50;;;;;;;;2010028;28;3598120;-70
2023/06/01 04:13:09;;;;;;;;;24.00;21.00;;;;;;;;2017275;28;2839868;-70
2023/06/01 04:14:20;;;;;;;;;29.00;25.00;;;;;;;;2002523;28;2506508;-70
2023/06/01 04:15:34;;;;;;;;;30.00;27.13;;;;;;;;2014779;28;3596076;-70
2023/06/01 04:16:44;;;;;;;;;27.00;21.00;;;;;;;;2018943;28;2849215;-70
2023/06/01 04:17:56;;;;;;;;;30.20;25.60;;;;;;;;2028433;28;3598164;-70
2023/06/01 04:19:08;;;;;;;;;27.80;27.00;;;;;;;;2028689;28;3593930;-70
2023/06/01 04:20:20;;;;;;;;;31.40;25.60;;;;;;;;2019109;28;3600271;-70
2023/06/01 04:21:32;;;;;;;;;26.60;24.00;;;;;;;;2006610;28;3573128;-70
2023/06/01 04:22:44;;;;;;;;;25.00;23.20;;;;;;;;1998521;28;2845091;-70
2023/06/01 04:23:54;;;;;;;;;35.50;28.00;;;;;;;;2016644;28;2857524;-70
2023/06/01 04:25:08;;;;;;;;;28.40;25.40;;;;;;;;2016359;28;3587008;-70
2023/06/01 04:26:18;;;;;;;;;25.50;23.50;;;;;;;;1994516;28;2843971;-70
2023/06/01 04:27:32;;;;;;;;;34.00;27.00;;;;;;;;2001148;28;3623143;-70
2023/06/01 04:28:46;;;;;;;;;32.00;27.00;;;;;;;;2003800;28;3591847;-70
2023/06/01 04:29:58;;;;;;;;;28.00;25.33;;;;;;;;1985010;28;3586689;-70
2023/06/01 04:31:16;;;;;;;;;27.00;25.00;;;;;;;;1991343;28;2846110;-70
2023/06/01 04:32:27;;;;;;;;;31.00;27.00;;;;;;;;2002706;27;2854895;-70
2023/06/01 04:33:40;;;;;;;;;33.00;28.00;;;;;;;;2004383;27;3606441;-70
2023/06/01 04:34:50;;;;;;;;;29.00;26.00;;;;;;;;2026463;28;2836688;-70
2023/06/01 04:36:04;;;;;;;;;33.25;24.50;;;;;;;;2023149;27;3608584;-70
2023/06/01 04:37:19;;;;;;;;;29.40;22.80;;;;;;;;2013214;28;3589807;-70
2023/06/01 04:38:32;;;;;;;;;32.00;29.00;;;;;;;;1995217;28;2506489;-70
2023/06/01 04:39:45;;;;;;;;;27.67;24.33;;;;;;;;2001933;27;3587700;-70
2023/06/01 04:40:56;;;;;;;;;29.50;27.50;;;;;;;;2002700;27;2856479;-70
2023/06/01 04:42:13;;;;;;;;;31.63;26.88;;;;;;;;2024248;28;3609594;-70
2023/06/01 04:43:24;;;;;;;;;31.67;27.00;;;;;;;;1998289;28;3585671;-70
2023/06/01 04:44:39;;;;;;;;;31.33;25.33;;;;;;;;2016024;27;3608588;-70
2023/06/01 04:45:49;;;;;;;;;37.50;30.50;;;;;;;;2000536;28;2864832;-70
2023/06/01 04:47:03;;;;;;;;;32.60;26.60;;;;;;;;2026631;27;3606452;-70
2023/06/01 04:48:14;;;;;;;;;27.50;26.00;;;;;;;;2003162;27;2843975;-70
2023/06/01 04:49:28;;;;;;;;;30.40;27.60;;;;;;;;2007200;27;3583533;-70
2023/06/01 04:50:40;;;;;;;;;30.67;29.67;;;;;;;;2002452;27;3604361;-70
2023/06/01 04:51:51;;;;;;;;;33.00;26.00;;;;;;;;1998307;28;2506465;-70
2023/06/01 04:53:01;;;;;;;;;28.00;27.00;;;;;;;;2001844;27;2857863;-70
2023/06/01 04:54:14;;;;;;;;;29.40;26.40;;;;;;;;2030681;27;3574166;-70
2023/06/01 04:55:25;;;;;;;;;29.50;27.50;;;;;;;;2026486;28;2856490;-70
2023/06/01 04:56:37;;;;;;;;;29.20;26.00;;;;;;;;2011709;27;3580436;-70
2023/06/01 04:57:49;;;;;;;;;30.20;26.60;;;;;;;;2051975;28;3587720;-70
2023/06/01 04:59:01;;;;;;;;;38.60;27.60;;;;;;;;2021168;28;3619971;-70
2023/06/01 05:00:14;;;;;;;;;32.60;30.20;;;;;;;;2019704;28;3580424;-70
2023/06/01 05:01:25;;;;;;;;;37.00;30.50;;;;;;;;1994367;27;2866903;-70
2023/06/01 05:02:37;;;;;;;;;31.33;26.00;;;;;;;;2008957;27;3610671;-70
2023/06/01 05:03:48;;;;;;;;;34.00;27.60;;;;;;;;2008342;27;3599231;-70
2023/06/01 05:05:03;;;;;;;;;39.38;28.88;;;;;;;;2022713;27;3630464;-70
2023/06/01 05:06:15;;;;;;;;;32.00;28.00;;;;;;;;1999536;28;3601281;-70
2023/06/01 05:07:26;;;;;;;;;31.50;28.00;;;;;;;;2001182;27;2860040;-70
2023/06/01 05:08:38;;;;;;;;;37.40;31.00;;;;;;;;2027092;27;3600271;-70
2023/06/01 05:09:50;;;;;;;;;29.00;28.00;;;;;;;;2025310;27;3598130;-70
2023/06/01 05:11:02;;;;;;;;;30.67;30.00;;;;;;;;2008197;28;3586702;-70
2023/06/01 05:12:14;;;;;;;;;34.67;27.67;;;;;;;;2000139;27;3610699;-70
2023/06/01 05:13:25;;;;;;;;;36.00;29.60;;;;;;;;2022794;27;3606458;-70
2023/06/01 05:14:39;;;;;;;;;32.00;28.75;;;;;;;;2026035;27;3604366;-69
2023/06/01 05:15:50;;;;;;;;;33.00;26.50;;;;;;;;2000394;27;2863134;-70
2023/06/01 05:17:03;;;;;;;;;38.80;30.20;;;;;;;;2030144;27;3597058;-70
2023/06/01 05:18:14;;;;;;;;;36.00;28.67;;;;;;;;2029354;27;2872130;-70
2023/06/01 05:19:24;;;;;;;;;31.00;28.50;;;;;;;;2025563;27;2854404;-69
2023/06/01 05:20:37;;;;;;;;;44.80;33.20;;;;;;;;2027483;28;3607503;-69
2023/06/01 05:21:47;;;;;;;;;34.00;26.00;;;;;;;;2003291;27;2862725;-69
2023/06/01 05:22:59;;;;;;;;;30.60;26.20;;;;;;;;2030459;27;3598092;-69
2023/06/01 05:24:11;;;;;;;;;35.80;29.60;;;;;;;;2028197;27;3614866;-70
2023/06/01 05:25:23;;;;;;;;;37.00;30.20;;;;;;;;2030449;27;3615851;-70
2023/06/01 05:26:35;;;;;;;;;31.00;28.40;;;;;;;;2028633;27;3593969;-70
2023/06/01 05:27:47;;;;;;;;;31.20;28.20;;;;;;;;2026165;27;3602310;-70
2023/06/01 05:28:59;;;;;;;;;32.40;30.00;;;;;;;;2029184;27;3610606;-70
2023/06/01 05:30:12;;;;;;;;;33.60;28.00;;;;;;;;2028876;27;3598135;-70
2023/06/01 05:31:23;;;;;;;;;29.67;29.00;;;;;;;;2010085;27;3597142;-73
2023/06/01 05:32:35;;;;;;;;;36.40;30.80;;;;;;;;2023529;27;3598150;-70
2023/06/01 05:33:51;;;;;;;;;33.75;29.25;;;;;;;;2021965;28;3604397;-70
2023/06/01 05:35:01;;;;;;;;;30.00;25.50;;;;;;;;2022841;27;2845081;-70
2023/06/01 05:36:13;;;;;;;;;33.60;29.00;;;;;;;;2021864;27;3601260;-70
2023/06/01 05:37:25;;;;;;;;;40.00;31.00;;;;;;;;2053052;27;3602326;-70
2023/06/01 05:38:38;;;;;;;;;24.29;21.29;;;;;;;;2019579;27;3569049;-70
2023/06/01 05:39:50;;;;;;;;;30.80;27.60;;;;;;;;2024350;28;3599166;-73
2023/06/01 05:41:03;;;;;;;;;34.63;31.63;;;;;;;;2021906;28;3598227;-73
2023/06/01 05:42:14;;;;;;;;;32.50;28.00;;;;;;;;2021841;27;2865938;-71
2023/06/01 05:43:27;;;;;;;;;40.38;33.00;;;;;;;;2021109;27;3600223;-71
2023/06/01 05:44:37;;;;;;;;;19.00;16.00;;;;;;;;2024532;27;2829421;-71
2023/06/01 05:45:49;;;;;;;;;32.20;27.80;;;;;;;;2025105;27;3610676;-71
2023/06/01 05:47:02;;;;;;;;;43.60;32.00;;;;;;;;2028471;28;3623128;-71
2023/06/01 05:48:14;;;;;;;;;32.20;27.80;;;;;;;;2025697;27;3610622;-71
2023/06/01 05:49:25;;;;;;;;;38.00;31.00;;;;;;;;2001506;27;2851354;-71
2023/06/01 05:50:37;;;;;;;;;38.00;31.20;;;;;;;;2028218;27;3595471;-71
2023/06/01 05:51:49;;;;;;;;;38.60;31.40;;;;;;;;2021874;27;3592976;-71
2023/06/01 05:53:01;;;;;;;;;31.40;29.20;;;;;;;;2012256;28;3587719;-71
2023/06/01 05:54:13;;;;;;;;;32.80;28.60;;;;;;;;2026816;28;3611125;-71
2023/06/01 05:55:25;;;;;;;;;33.80;29.60;;;;;;;;2024211;27;3595020;-71
2023/06/01 05:56:42;;;;;;;;;38.00;31.00;;;;;;;;2014211;28;3611680;-70
2023/06/01 05:57:53;;;;;;;;;37.00;28.00;;;;;;;;1998511;27;2865876;-71
2023/06/01 05:59:05;;;;;;;;;38.60;29.80;;;;;;;;2022169;28;3611658;-71
2023/06/01 06:00:17;;;;;;;;;28.80;27.80;;;;;;;;2026710;27;3590825;-70
2023/06/01 06:01:29;;;;;;;;;34.20;31.00;;;;;;;;2018545;28;3590844;-70
2023/06/01 06:02:42;;;;;;;;;36.20;30.20;;;;;;;;2006500;27;3599177;-71
2023/06/01 06:03:52;;;;;;;;;26.00;24.00;;;;;;;;2000999;27;2836694;-71
2023/06/01 06:05:04;;;;;;;;;40.80;31.40;;;;;;;;2025295;28;3610627;-71
2023/06/01 06:06:17;;;;;;;;;35.40;28.80;;;;;;;;2016306;27;3599166;-71
2023/06/01 06:07:27;;;;;;;;;31.00;26.00;;;;;;;;2003222;27;2857545;-71
2023/06/01 06:08:39;;;;;;;;;32.80;28.20;;;;;;;;2028567;28;3612747;-71
2023/06/01 06:09:51;;;;;;;;;35.40;31.60;;;;;;;;2026346;27;3592928;-70
2023/06/01 06:11:03;;;;;;;;;37.40;30.60;;;;;;;;2028347;28;3589079;-71
2023/06/01 06:12:15;;;;;;;;;35.80;30.80;;;;;;;;2022285;27;3601286;-71
2023/06/01 06:13:27;;;;;;;;;32.40;29.00;;;;;;;;2026446;27;3603331;-71
2023/06/01 06:14:39;;;;;;;;;38.60;30.80;;;;;;;;2026260;27;3598136;-71
2023/06/01 06:15:51;;;;;;;;;37.20;30.20;;;;;;;;2026845;27;3617938;-71
2023/06/01 06:17:03;;;;;;;;;36.60;30.60;;;;;;;;2028680;28;3582979;-71
2023/06/01 06:18:15;;;;;;;;;32.20;25.80;;;;;;;;2022542;28;3599157;-71
2023/06/01 06:19:27;;;;;;;;;34.00;27.20;;;;;;;;2026818;27;3597086;-71
2023/06/01 06:20:39;;;;;;;;;31.80;29.00;;;;;;;;2026730;28;3601265;-71
2023/06/01 06:21:51;;;;;;;;;30.60;25.40;;;;;;;;2027710;28;3598149;-71
2023/06/01 06:23:03;;;;;;;;;31.40;29.40;;;;;;;;2027755;28;3580433;-71
2023/06/01 06:24:15;;;;;;;;;35.60;30.60;;;;;;;;2053309;27;3607486;-71
2023/06/01 06:25:27;;;;;;;;;38.40;30.60;;;;;;;;2029780;27;3615884;-71
2023/06/01 06:26:39;;;;;;;;;41.00;33.40;;;;;;;;2021612;27;3592919;-71
2023/06/01 06:27:51;;;;;;;;;26.67;26.33;;;;;;;;2003911;27;3596060;-71
2023/06/01 06:29:03;;;;;;;;;35.40;29.00;;;;;;;;2034657;27;3617909;-71
2023/06/01 06:30:15;;;;;;;;;34.80;28.60;;;;;;;;2025992;27;3616338;-71
2023/06/01 06:31:26;;;;;;;;;32.40;28.40;;;;;;;;2023596;28;3604371;-71
2023/06/01 06:32:39;;;;;;;;;35.20;31.20;;;;;;;;2032517;27;3620066;-70
2023/06/01 06:33:51;;;;;;;;;37.60;33.20;;;;;;;;2019408;28;3580395;-70
2023/06/01 06:35:03;;;;;;;;;38.80;31.40;;;;;;;;2019764;27;3604739;-71
2023/06/01 06:36:16;;;;;;;;;28.71;22.29;;;;;;;;2017107;27;3594069;-71
2023/06/01 06:37:28;;;;;;;;;38.60;28.60;;;;;;;;2021199;27;3614805;-70
2023/06/01 06:38:39;;;;;;;;;39.20;32.40;;;;;;;;2018313;27;3591871;-70
2023/06/01 06:39:51;;;;;;;;;38.80;31.40;;;;;;;;2028472;27;3592950;-72
2023/06/01 06:41:03;;;;;;;;;28.80;27.00;;;;;;;;2028480;28;3591929;-71
2023/06/01 06:42:15;;;;;;;;;40.20;32.40;;;;;;;;2024194;28;3611661;-72
2023/06/01 06:43:27;;;;;;;;;36.40;30.00;;;;;;;;2028764;28;3593946;-72
2023/06/01 06:44:39;;;;;;;;;36.80;30.20;;;;;;;;2023450;27;3595066;-71
2023/06/01 06:45:51;;;;;;;;;34.80;31.00;;;;;;;;2025354;27;3587703;-71
2023/06/01 06:47:03;;;;;;;;;36.00;31.00;;;;;;;;2027300;27;3611649;-72
2023/06/01 06:48:15;;;;;;;;;31.80;28.80;;;;;;;;2023772;27;3606804;-71
2023/06/01 06:49:27;;;;;;;;;29.60;27.20;;;;;;;;2029790;27;3569996;-72
2023/06/01 06:50:43;;;;;;;;;26.80;22.80;;;;;;;;2050131;27;3586684;-72